Redondo, Valles Caldera, New Mexico Weather observations

Data are for 10 minute period ending at time listed.
 Day   Time   Solar   Ave.   Ave.  Ave.  Vector  Max.   Baro.   Total    
  of    of     Rad.   Air    Rel.  Wind   Wind   Wind  Press.  Precip.   
Year   Day            Temp.  Hum.  Speed  Dir.   Gust                    
2016   (MST)  Kw/m2    F      %     mph   deg.    mph    mb.     in.     
-------------------------------------------------------------------------
 345    0:30   0.00   28.3    74    6.7   293    14.9   690.7    0.00 
 345    0:40   0.00   28.5    73    6.7   297    11.3   690.6    0.00 
 345    0:50   0.00   28.3    73    6.2   295    13.1   690.6    0.00 
 345    1:00   0.00   28.3    74    6.9   298    14.3   690.6    0.00 
 345    1:10   0.00   28.2    76    6.0   295    13.1   690.6    0.00 
 345    1:20   0.00   27.9    79    6.1   293    10.8   690.7    0.00 
 345    1:30   0.00   27.7    78    6.3   295    11.9   690.7    0.00 
 345    1:40   0.00   27.9    76    6.8   290    14.9   690.7    0.00 
 345    1:50   0.00   27.9    76    6.4   296    14.3   690.7    0.00 
 345    2:00   0.00   28.3    70    6.9   293    13.1   690.6    0.00 
 345    2:10   0.00   28.8    65    6.4   293    13.1   690.6    0.00 
 345    2:20   0.00   28.9    67    5.6   296    13.1   690.7    0.00 
 345    2:30   0.00   28.4    69    6.0   296    11.3   690.8    0.00 
 345    2:40   0.00   28.1    72    5.5   291    11.9   690.9    0.00 
 345    2:50   0.00   27.4    76    5.6   298    10.8   690.9    0.00 
 345    3:00   0.00   27.1    78    5.3   298    11.9   690.7    0.00 
 345    3:10   0.00   27.4    75    5.7   295    11.9   690.6    0.00 
 345    3:20   0.00   27.6    74    5.1   296    10.8   690.5    0.00 
 345    3:30   0.00   28.4    62    6.2   299    12.5   690.4    0.00 
 345    3:40   0.00   28.7    61    5.1   299     9.0   690.3    0.00 
 345    3:50   0.00   28.3    68    5.4   294    10.2   690.3    0.00 
 345    4:00   0.00   28.2    65    5.1   302     9.6   690.2    0.00 
 345    4:10   0.00   28.5    62    5.1   296    11.3   690.1    0.00 
 345    4:20   0.00   28.2    67    5.5   296    11.3   690.1    0.00 
 345    4:30   0.00   28.0    66    5.3   295    11.9   690.1    0.00 
 345    4:40   0.00   28.2    64    5.4   297    14.3   690.0    0.00 
 345    4:50   0.00   28.2    61    4.5   296     8.4   689.9    0.00 
 345    5:00   0.00   28.4    61    5.6   297     9.6   689.9    0.00 
 345    5:10   0.00   28.0    64    4.5   300     9.6   690.1    0.00 
 345    5:20   0.00   27.4    71    4.3   294     8.4   690.1    0.00 
 345    5:30   0.00   27.2    72    5.0   282    11.9   690.1    0.00 
 345    5:40   0.00   27.2    73    5.0   292    10.8   690.1    0.00 
 345    5:50   0.00   27.9    64    5.4   299    11.3   690.1    0.00 
 345    6:00   0.00   28.4    60    5.3   296    11.9   690.1    0.00 
 345    6:10   0.00   28.7    60    5.0   296     9.0   690.1    0.00 
 345    6:20   0.00   28.8    59    6.2   293    14.3   690.1    0.00 
 345    6:30   0.00   28.7    62    6.0   298    12.5   690.1    0.00 
 345    6:40   0.00   29.2    55    6.4   298    12.5   690.1    0.00 
 345    6:50   0.00   29.6    52    5.9   295    13.7   690.1    0.00 
 345    7:00   0.00   29.9    51    5.4   293    10.8   690.1    0.00 
 345    7:10   0.00   29.9    53    6.3   296    10.8   690.2    0.00 
 345    7:20   0.01   29.8    54    5.2   292    10.8   690.1    0.00 
 345    7:30   0.01   30.1    52    4.7   281     9.6   690.1    0.00 
 345    7:40   0.02   30.6    50    5.4   280    11.9   690.1    0.00 
 345    7:50   0.06   31.4    46    4.8   299    10.8   690.1    0.00 
 345    8:00   0.08   33.3    41    4.2   296     9.0   690.0    0.00 
 345    8:10   0.14   34.0    40    4.5   278    11.3   689.9    0.00 
 345    8:20   0.18   35.3    38    4.6   281     9.6   690.0    0.00 
 345    8:30   0.21   36.0    40    4.2   268    10.2   690.0    0.00 
 345    8:40   0.24   35.8    45    4.0   259    11.3   690.1    0.00 
 345    8:50   0.27   35.9    46    4.4   264     9.0   690.1    0.00 
 345    9:00   0.27   35.9    47    5.0   277     9.6   690.1    0.00 
 345    9:10   0.30   36.9    44    4.6   289    11.3   690.0    0.00 
 345    9:20   0.35   37.5    42    5.3   273    13.7   690.2    0.00 
 345    9:30   0.36   37.7    40    5.8   286    12.5   690.2    0.00 
 345    9:40   0.39   38.0    42    5.2   283    12.5   690.1    0.00 
 345    9:50   0.42   39.0    40    5.2   289    10.2   690.2    0.00 
 345   10:00   0.44   38.9    39    6.2   292    13.7   690.1    0.00 
 345   10:10   0.46   38.5    40    6.9   285    14.3   690.1    0.00 
 345   10:20   0.48   39.0    40    5.6   287    11.3   690.1    0.00 
 345   10:30   0.50   40.5    38    6.2   298    10.8   690.1    0.00 
 345   10:40   0.51   40.5    34    7.0   290    16.1   690.0    0.00 
 345   10:50   0.53   41.5    34    6.2   295    13.7   689.9    0.00 
 345   11:00   0.54   41.2    33    7.4   289    13.7   689.7    0.00 
 345   11:10   0.55   41.0    32    7.5   289    16.1   689.6    0.00 
 345   11:20   0.56   40.3    32    8.6   292    14.9   689.4    0.00 
 345   11:30   0.57   40.1    32    9.0   294    18.5   689.2    0.00 
 345   11:40   0.58   40.2    30    9.7   291    19.1   689.0    0.00 
 345   11:50   0.58   40.7    29    9.9   295    22.1   689.0    0.00 
 345   12:00   0.57   40.7    28    9.3   290    20.3   688.8    0.00 
 345   12:10   0.60   41.0    28   10.0   295    21.5   688.7    0.00 
 345   12:20   0.48   40.7    28    8.2   283    14.9   688.7    0.00 
 345   12:30   0.46   39.1    27    9.4   288    20.9   688.6    0.00 
 345   12:40   0.55   40.1    26    8.7   288    16.1   688.5    0.00 
 345   12:50   0.37   39.7    26    8.6   297    19.1   688.4    0.00 
 345   13:00   0.23   38.7    27    8.7   293    17.9   688.3    0.00 
 345   13:10   0.23   39.3    27    8.2   295    18.5   688.3    0.00 
 345   13:20   0.39   39.0    26    8.1   293    17.9   688.2    0.00 
 345   13:30   0.31   38.9    26    8.7   282    16.7   688.1    0.00 
 345   13:40   0.19   39.4    26    8.0   288    16.1   688.0    0.00 
 345   13:50   0.37   40.8    24    7.9   293    13.7   687.9    0.00 
 345   14:00   0.45   41.6    24    8.5   293    17.3   687.8    0.00 
 345   14:10   0.38   39.5    26    8.3   290    17.9   687.7    0.00 
 345   14:20   0.44   40.4    26    8.2   288    16.1   687.7    0.00 
 345   14:30   0.35   39.5    27    8.8   288    18.5   687.6    0.00 
 345   14:40   0.35   39.1    28    8.2   286    17.9   687.5    0.00 
 345   14:50   0.16   37.6    30    7.0   286    14.9   687.4    0.00 
 345   15:00   0.24   37.1    30    8.1   285    16.7   687.5    0.00 
 345   15:10   0.31   39.8    27    7.8   293    16.1   687.4    0.00 
 345   15:20   0.28   39.4    27    7.8   287    18.5   687.4    0.00 
 345   15:30   0.21   38.9    27    8.6   293    16.1   687.4    0.00 
 345   15:40   0.14   37.0    30    7.2   297    16.7   687.4    0.00 
 345   15:50   0.16   37.0    30    8.2   295    17.9   687.3    0.00 
 345   16:00   0.11   36.4    31    8.1   292    17.3   687.3    0.00 
 345   16:10   0.09   35.5    32    7.8   294    17.9   687.3    0.00 
 345   16:20   0.03   34.5    32    8.4   294    17.3   687.2    0.00 
 345   16:30   0.04   34.2    33    8.8   289    16.7   687.1    0.00 
 345   16:40   0.02   33.7    34    7.3   297    14.9   687.0    0.00 
 345   16:50   0.01   33.3    34    7.6   297    17.3   686.9    0.00 
 345   17:00   0.00   33.2    34    8.5   294    14.9   686.7    0.00 
 345   17:10   0.00   33.0    35    8.0   297    15.5   686.6    0.00 
 345   17:20   0.00   32.7    37    7.9   296    17.3   686.5    0.00 
 345   17:30   0.00   32.5    38    8.1   292    16.1   686.5    0.00 
 345   17:40   0.00   32.3    38    7.8   291    15.5   686.5    0.00 
 345   17:50   0.00   32.4    39    8.8   291    16.1   686.5    0.00 
 345   18:00   0.00   32.1    40    8.9   295    15.5   686.5    0.00 
 345   18:10   0.00   32.0    41    8.9   293    17.3   686.5    0.00 
 345   18:20   0.00   31.7    42    8.1   294    14.3   686.5    0.00 
 345   18:30   0.00   31.8    43    8.4   293    21.5   686.5    0.00 
 345   18:40   0.00   31.6    45    7.8   294    17.3   686.6    0.00 
 345   18:50   0.00   31.4    46    8.4   297    16.7   686.5    0.00 
 345   19:00   0.00   31.3    47    9.1   287    17.3   686.5    0.00 
 345   19:10   0.00   31.2    48    8.1   291    17.9   686.5    0.00 
 345   19:20   0.00   31.1    50    9.1   288    17.9   686.6    0.00 
 345   19:30   0.00   31.0    51    8.9   295    20.3   686.5    0.00 
 345   19:40   0.00   31.0    52    9.1   291    19.1   686.5    0.00 
 345   19:50   0.00   31.1    53    8.9   292    19.7   686.5    0.00 
 345   20:00   0.00   31.1    53    8.0   293    16.1   686.5    0.00 
 345   20:10   0.00   30.9    53    7.9   292    17.3   686.5    0.00 
 345   20:20   0.00   31.0    54    8.6   290    17.3   686.5    0.00 
 345   20:30   0.00   31.1    54    8.4   290    17.9   686.4    0.00 
 345   20:40   0.00   31.0    54    9.1   291    18.5   686.4    0.00 
 345   20:50   0.00   30.9    55    8.6   291    17.3   686.4    0.00 
 345   21:00   0.00   30.8    55    8.4   295    14.3   686.5    0.00 
 345   21:10   0.00   30.6    56    8.1   294    14.9   686.3    0.00 
 345   21:20   0.00   30.5    56    8.7   290    18.5   686.3    0.00 
 345   21:30   0.00   30.5    56    9.2   289    19.1   686.2    0.00 
 345   21:40   0.00   30.3    57    8.5   289    17.3   686.1    0.00 
 345   21:50   0.00   30.1    58    9.5   297    16.7   686.0    0.00 
 345   22:00   0.00   29.9    58    9.0   292    14.9   685.9    0.00 
 345   22:10   0.00   29.5    59    9.0   292    16.1   685.8    0.00 
 345   22:20   0.00   29.4    61    8.7   296    16.1   685.7    0.00 
 345   22:30   0.00   29.4    62    8.9   292    17.3   685.7    0.00 
 345   22:40   0.00   29.2    62    8.0   290    14.9   685.7    0.00 
 345   22:50   0.00   28.9    62    9.6   290    18.5   685.8    0.00 
 345   23:00   0.00   28.6    63    8.2   291    17.3   685.8    0.00 
 345   23:10   0.00   28.3    64    9.1   289    16.7   685.6    0.00 
 345   23:20   0.00   28.4    67    9.8   289    19.1   685.6    0.00 
 345   23:30   0.00   28.3    68    9.8   289    18.5   685.5    0.00 
 345   23:40   0.00   28.0    70    9.1   290    19.1   685.5    0.00 
 345   23:50   0.00   27.7    71    9.6   287    19.1   685.3    0.00 
 346    0:00   0.00   27.4    72    8.3   289    15.5   685.2    0.00 
 346    0:10   0.00   27.0    73    8.5   293    16.1   685.0    0.00 
 346    0:20   0.00   27.0    74    9.3   296    17.9   685.0    0.00 

Return to Redondo, Valles Caldera graphs page.


Western Regional Climate Center,wrcc@dri.edu